Time;durP1;ratioP1;P1;durP2;ratioP2;P2;SDS_P1;SDS_P2;PMS_P1;PMS_P2;Temp;Humidity;BMP_temperature;BMP_pressure;BME280_temperature;BME280_humidity;BME280_pressure;Samples;Min_cycle;Max_cycle;Signal;HPM_P1;HPM_P2
2024/03/17 00:01:01;;;;;;;19.87;12.10;;;6.80;99.90;;;;;;5061171;28;20483;-69
2024/03/17 00:03:28;;;;;;;18.57;12.37;;;6.70;99.90;;;;;;5061864;28;20969;-68
2024/03/17 00:05:58;;;;;;;19.70;12.57;;;6.60;99.90;;;;;;5062946;28;20440;-68
2024/03/17 00:08:27;;;;;;;20.00;11.73;;;6.50;99.90;;;;;;5063391;28;20508;-69
2024/03/17 00:10:53;;;;;;;20.90;11.57;;;6.60;99.90;;;;;;5062388;28;20474;-69
2024/03/17 00:13:21;;;;;;;20.40;11.97;;;6.80;99.90;;;;;;5061558;28;20447;-68
2024/03/17 00:15:47;;;;;;;21.00;13.07;;;6.70;99.90;;;;;;5059743;28;20490;-68
2024/03/17 00:18:14;;;;;;;20.23;12.83;;;6.60;99.90;;;;;;5063762;28;21086;-68
2024/03/17 00:20:41;;;;;;;51.40;15.30;;;6.70;99.90;;;;;;5063353;28;20498;-69
2024/03/17 00:23:09;;;;;;;31.30;13.10;;;6.80;99.90;;;;;;5060074;28;20833;-68
2024/03/17 00:25:36;;;;;;;62.73;17.03;;;6.70;99.90;;;;;;5062879;28;20443;-69
2024/03/17 00:28:03;;;;;;;24.60;11.93;;;6.60;99.90;;;;;;5062485;28;20470;-69
2024/03/17 00:30:31;;;;;;;70.67;16.97;;;6.50;99.90;;;;;;5062870;28;20451;-69
2024/03/17 00:32:58;;;;;;;33.87;14.37;;;6.60;99.90;;;;;;5060598;28;20455;-68
2024/03/17 00:35:25;;;;;;;22.80;13.50;;;6.60;99.90;;;;;;5062635;28;20479;-68
2024/03/17 00:37:53;;;;;;;23.33;12.70;;;6.60;99.90;;;;;;5061047;28;20455;-69
2024/03/17 00:40:19;;;;;;;23.10;14.17;;;6.60;99.90;;;;;;5061112;28;20459;-69
2024/03/17 00:42:48;;;;;;;34.40;14.20;;;6.70;99.90;;;;;;5059387;28;20459;-69
2024/03/17 00:45:15;;;;;;;66.43;16.03;;;6.80;99.90;;;;;;5052847;28;20904;-69
2024/03/17 00:47:43;;;;;;;52.27;17.70;;;6.70;99.90;;;;;;5060297;28;20455;-68
2024/03/17 00:50:11;;;;;;;57.17;15.70;;;6.70;99.90;;;;;;5060121;28;20649;-70
2024/03/17 00:52:38;;;;;;;42.63;13.00;;;6.70;99.90;;;;;;5058871;28;20479;-68
2024/03/17 00:55:05;;;;;;;59.60;16.23;;;6.70;99.90;;;;;;5060454;28;21006;-71
2024/03/17 00:57:32;;;;;;;21.10;12.97;;;6.60;99.90;;;;;;5061763;28;20455;-69
2024/03/17 00:59:59;;;;;;;19.53;11.53;;;6.60;99.90;;;;;;5061157;28;20883;-70
2024/03/17 01:02:26;;;;;;;22.03;11.90;;;6.60;99.90;;;;;;5060154;28;20475;-70
2024/03/17 01:04:52;;;;;;;21.97;12.80;;;6.70;99.90;;;;;;5060945;28;20550;-69
2024/03/17 01:07:19;;;;;;;17.57;11.37;;;6.60;99.90;;;;;;5061176;28;20437;-70
2024/03/17 01:09:47;;;;;;;21.17;11.53;;;6.60;99.90;;;;;;5061297;28;20455;-69
2024/03/17 01:12:14;;;;;;;18.70;11.70;;;6.40;99.90;;;;;;5051329;28;20479;-71
2024/03/17 01:14:40;;;;;;;18.00;10.73;;;6.40;99.90;;;;;;5061599;28;20845;-70
2024/03/17 01:17:09;;;;;;;20.60;11.83;;;6.40;99.90;;;;;;5058655;28;21322;-71
2024/03/17 01:19:35;;;;;;;18.20;10.57;;;6.30;99.90;;;;;;5060345;28;20458;-69
2024/03/17 01:22:02;;;;;;;18.47;10.90;;;6.30;99.90;;;;;;5058728;28;20471;-68
2024/03/17 01:24:31;;;;;;;20.10;11.60;;;6.30;99.90;;;;;;5060104;28;20461;-72
2024/03/17 01:26:59;;;;;;;39.77;14.60;;;6.30;99.90;;;;;;5059797;28;20842;-69
2024/03/17 01:29:25;;;;;;;45.80;14.53;;;6.10;99.90;;;;;;5060365;28;20462;-68
2024/03/17 01:31:52;;;;;;;37.03;12.10;;;6.10;99.90;;;;;;5058013;28;20516;-70
2024/03/17 01:34:20;;;;;;;93.83;19.30;;;6.00;99.90;;;;;;5059630;28;20453;-68
2024/03/17 01:36:47;;;;;;;202.10;21.87;;;5.90;99.90;;;;;;5059562;28;20489;-69
2024/03/17 01:39:13;;;;;;;231.03;27.33;;;5.80;99.90;;;;;;5059133;28;20443;-70
2024/03/17 01:41:40;;;;;;;89.93;18.67;;;5.90;99.90;;;;;;5058879;28;20477;-70
2024/03/17 01:44:06;;;;;;;72.70;16.30;;;6.00;99.90;;;;;;5059418;28;20470;-69
2024/03/17 01:46:34;;;;;;;40.27;13.07;;;6.10;99.90;;;;;;5059803;28;20466;-69
2024/03/17 01:49:01;;;;;;;27.90;11.10;;;5.90;99.90;;;;;;5059110;28;20511;-69
2024/03/17 01:51:29;;;;;;;22.80;11.40;;;5.80;99.90;;;;;;5058431;28;20510;-70
2024/03/17 01:53:56;;;;;;;21.77;12.07;;;5.60;99.90;;;;;;5059384;28;20455;-71
2024/03/17 01:56:23;;;;;;;20.33;11.87;;;5.80;99.90;;;;;;5060465;28;20485;-70
2024/03/17 01:58:50;;;;;;;72.73;14.83;;;5.70;99.90;;;;;;5060061;28;20452;-69
2024/03/17 02:01:17;;;;;;;166.10;21.50;;;5.70;99.90;;;;;;5061300;28;20883;-70
2024/03/17 02:03:43;;;;;;;40.93;13.93;;;5.70;99.90;;;;;;5060580;28;20524;-70
2024/03/17 02:06:10;;;;;;;29.20;11.70;;;5.70;99.90;;;;;;5060204;28;20546;-69
2024/03/17 02:08:52;;;;;;;240.13;26.13;;;5.60;99.90;;;;;;5059701;28;20474;-72
2024/03/17 02:11:27;;;;;;;139.40;21.70;;;5.60;99.90;;;;;;5059090;28;20508;-69
2024/03/17 02:13:55;;;;;;;99.77;18.37;;;5.50;99.90;;;;;;5063214;28;20450;-71
2024/03/17 02:16:22;;;;;;;50.17;14.00;;;5.50;99.90;;;;;;5063846;28;20480;-72
2024/03/17 02:18:48;;;;;;;54.70;13.40;;;5.40;99.90;;;;;;5064210;28;20454;-70
2024/03/17 02:21:16;;;;;;;39.10;12.60;;;5.40;99.90;;;;;;5063542;28;20471;-70
2024/03/17 02:23:43;;;;;;;43.90;15.37;;;5.30;99.90;;;;;;5062220;28;20879;-69
2024/03/17 02:26:11;;;;;;;48.43;16.40;;;5.30;99.90;;;;;;5064098;28;20457;-70
2024/03/17 02:28:40;;;;;;;76.67;15.27;;;5.40;99.90;;;;;;5064400;28;20458;-69
2024/03/17 02:31:09;;;;;;;46.03;12.63;;;5.40;99.90;;;;;;5063447;28;20501;-69
2024/03/17 02:33:36;;;;;;;70.87;15.30;;;5.40;99.90;;;;;;5063739;28;20454;-69
2024/03/17 02:36:06;;;;;;;43.63;13.97;;;5.40;99.90;;;;;;5063971;28;20486;-69
2024/03/17 02:41:20;;;;;;;17.37;9.93;;;5.40;99.90;;;;;;5055154;28;20484;-68
2024/03/17 02:43:48;;;;;;;17.80;9.77;;;5.40;99.90;;;;;;5063930;28;20467;-68
2024/03/17 02:46:16;;;;;;;17.53;9.00;;;5.50;99.90;;;;;;5063397;28;20440;-71
2024/03/17 02:48:47;;;;;;;24.37;11.03;;;5.60;99.90;;;;;;5065030;28;20464;-69
2024/03/17 02:51:15;;;;;;;15.90;9.60;;;5.70;99.90;;;;;;5065258;28;20460;-71
2024/03/17 02:53:42;;;;;;;132.10;20.83;;;5.70;99.90;;;;;;5063996;28;20481;-70
2024/03/17 02:56:09;;;;;;;133.13;19.73;;;5.60;99.90;;;;;;5064454;28;20481;-70
2024/03/17 02:58:39;;;;;;;151.67;20.27;;;5.70;99.90;;;;;;5065084;28;20443;-72
2024/03/17 03:01:06;;;;;;;34.70;13.23;;;5.70;99.90;;;;;;5063495;28;21091;-70
2024/03/17 03:03:34;;;;;;;32.03;14.37;;;5.80;99.90;;;;;;5062874;28;20522;-70
2024/03/17 03:06:04;;;;;;;26.80;11.43;;;5.90;99.90;;;;;;5065845;28;20461;-70
2024/03/17 03:08:31;;;;;;;41.20;14.13;;;6.00;99.90;;;;;;5068314;28;20504;-71
2024/03/17 03:10:58;;;;;;;22.27;10.60;;;6.10;99.90;;;;;;5067077;28;20489;-70
2024/03/17 03:13:25;;;;;;;17.53;9.80;;;6.00;99.90;;;;;;5066656;28;20449;-71
2024/03/17 03:15:54;;;;;;;19.50;11.03;;;5.90;99.90;;;;;;5067488;28;20457;-70
2024/03/17 03:18:20;;;;;;;107.80;20.10;;;5.90;99.90;;;;;;5067352;28;20453;-71
2024/03/17 03:20:52;;;;;;;20.00;10.10;;;5.90;99.90;;;;;;5066393;28;20467;-70
2024/03/17 03:23:19;;;;;;;55.07;14.30;;;5.70;99.90;;;;;;5067684;28;20446;-70
2024/03/17 03:25:47;;;;;;;37.67;11.37;;;5.90;99.90;;;;;;5068069;28;20443;-71
2024/03/17 03:28:14;;;;;;;17.40;10.07;;;6.00;99.90;;;;;;5066646;28;20966;-71
2024/03/17 03:30:41;;;;;;;19.27;10.10;;;6.00;99.90;;;;;;5066826;28;20475;-70
2024/03/17 03:33:10;;;;;;;17.57;10.60;;;5.90;99.90;;;;;;5065764;28;20451;-70
2024/03/17 03:35:37;;;;;;;21.67;9.87;;;5.90;99.90;;;;;;5066900;28;20459;-71
2024/03/17 03:38:04;;;;;;;22.20;10.73;;;6.00;99.90;;;;;;5067012;28;20482;-70
2024/03/17 03:40:32;;;;;;;21.97;12.07;;;5.90;99.90;;;;;;5067030;28;20794;-70
2024/03/17 03:42:59;;;;;;;18.30;10.17;;;5.80;99.90;;;;;;5065018;28;20505;-71
2024/03/17 03:45:26;;;;;;;22.43;10.23;;;5.90;99.90;;;;;;5066709;28;20451;-71
2024/03/17 03:47:53;;;;;;;34.53;12.27;;;5.80;99.90;;;;;;5066373;28;20458;-70
2024/03/17 03:50:22;;;;;;;18.63;10.30;;;5.70;99.90;;;;;;5066695;28;20455;-70
2024/03/17 03:52:50;;;;;;;24.23;10.40;;;5.80;99.90;;;;;;5064982;28;20829;-71
2024/03/17 03:55:20;;;;;;;22.50;9.90;;;5.80;99.90;;;;;;5067199;28;20447;-71
2024/03/17 03:57:47;;;;;;;28.17;11.20;;;5.80;99.90;;;;;;5067868;28;20489;-70
2024/03/17 04:00:15;;;;;;;15.63;8.90;;;5.70;99.90;;;;;;5067815;28;20524;-70
2024/03/17 04:02:43;;;;;;;20.33;9.97;;;5.80;99.90;;;;;;5066470;28;20471;-71
2024/03/17 04:05:10;;;;;;;37.97;11.70;;;5.70;99.90;;;;;;5067832;28;20517;-71
2024/03/17 04:07:39;;;;;;;39.70;12.33;;;5.70;99.90;;;;;;5067727;28;20506;-71
2024/03/17 04:10:07;;;;;;;48.13;12.37;;;5.70;99.90;;;;;;5066751;28;20458;-70
2024/03/17 04:12:34;;;;;;;36.20;11.13;;;5.70;99.90;;;;;;5065110;28;20479;-71
2024/03/17 04:15:02;;;;;;;17.87;11.27;;;5.70;99.90;;;;;;5063548;28;20978;-71
2024/03/17 04:17:29;;;;;;;15.90;9.60;;;5.80;99.90;;;;;;5065727;28;21130;-71
2024/03/17 04:19:56;;;;;;;52.37;13.93;;;5.90;99.90;;;;;;5066242;28;20505;-70
2024/03/17 04:22:23;;;;;;;33.03;10.87;;;5.90;99.90;;;;;;5065292;28;20471;-71
2024/03/17 04:24:53;;;;;;;22.17;10.50;;;5.80;99.90;;;;;;5066383;28;20449;-71
2024/03/17 04:27:20;;;;;;;32.00;11.27;;;5.80;99.90;;;;;;5066283;28;20451;-71
2024/03/17 04:29:47;;;;;;;65.63;12.70;;;5.70;99.90;;;;;;5066049;28;20451;-70
2024/03/17 04:32:15;;;;;;;33.07;11.30;;;5.60;99.90;;;;;;5064643;28;20967;-71
2024/03/17 04:34:43;;;;;;;40.93;11.50;;;5.70;99.90;;;;;;5066002;28;20822;-70
2024/03/17 04:37:11;;;;;;;81.67;15.03;;;5.90;99.90;;;;;;5065765;28;20884;-71
2024/03/17 04:39:39;;;;;;;57.70;13.33;;;5.90;99.90;;;;;;5065640;28;20864;-71
2024/03/17 04:42:07;;;;;;;20.40;9.90;;;5.80;99.90;;;;;;5065439;28;20469;-71
2024/03/17 04:44:34;;;;;;;21.60;8.83;;;5.70;99.90;;;;;;5067273;28;20455;-71
2024/03/17 04:47:02;;;;;;;39.23;10.67;;;5.60;99.90;;;;;;5066921;28;20453;-70
2024/03/17 04:49:29;;;;;;;44.27;12.70;;;5.60;99.90;;;;;;5066840;28;20451;-71
2024/03/17 04:51:56;;;;;;;50.47;13.70;;;5.60;99.90;;;;;;5065279;28;20470;-70
2024/03/17 04:54:23;;;;;;;56.57;13.40;;;5.70;99.90;;;;;;5066625;28;20728;-71
2024/03/17 04:56:50;;;;;;;55.43;13.60;;;5.70;99.90;;;;;;5066638;28;20486;-70
2024/03/17 04:59:18;;;;;;;48.83;12.73;;;5.60;99.90;;;;;;5066522;28;20455;-70
2024/03/17 05:01:45;;;;;;;25.87;11.30;;;5.70;99.90;;;;;;5065409;28;20477;-71
2024/03/17 05:04:12;;;;;;;43.63;12.33;;;5.70;99.90;;;;;;5065513;28;20906;-72
2024/03/17 05:06:41;;;;;;;27.90;10.70;;;5.60;99.90;;;;;;5065431;28;20453;-71
2024/03/17 05:09:08;;;;;;;72.60;14.07;;;5.60;99.90;;;;;;5065318;28;20452;-70
2024/03/17 05:11:37;;;;;;;21.87;10.77;;;5.60;99.90;;;;;;5063889;28;20481;-70
2024/03/17 05:14:04;;;;;;;42.10;12.80;;;5.50;99.90;;;;;;5064777;28;20445;-70
2024/03/17 05:16:32;;;;;;;36.83;12.03;;;5.60;99.90;;;;;;5065215;28;20458;-70
2024/03/17 05:19:00;;;;;;;33.37;11.73;;;5.60;99.90;;;;;;5065217;28;20452;-71
2024/03/17 05:21:29;;;;;;;22.97;11.97;;;5.60;99.90;;;;;;5063612;28;20840;-71
2024/03/17 05:23:57;;;;;;;37.60;13.17;;;5.80;99.90;;;;;;5064751;28;21221;-71
2024/03/17 05:26:25;;;;;;;29.80;12.10;;;5.80;99.90;;;;;;5065174;28;20446;-71
2024/03/17 05:28:52;;;;;;;28.57;12.30;;;5.70;99.90;;;;;;5063995;28;20499;-71
2024/03/17 05:31:20;;;;;;;20.40;11.10;;;5.60;99.90;;;;;;5064443;28;20481;-70
2024/03/17 05:33:49;;;;;;;52.03;13.07;;;5.70;99.90;;;;;;5063746;28;20939;-70
2024/03/17 05:36:19;;;;;;;26.90;12.60;;;5.70;99.90;;;;;;5065891;28;20934;-71
2024/03/17 05:38:47;;;;;;;25.77;10.67;;;5.70;99.90;;;;;;5065165;28;20483;-70
2024/03/17 05:41:14;;;;;;;38.23;12.07;;;5.80;99.90;;;;;;5063197;28;20464;-71
2024/03/17 05:43:41;;;;;;;29.13;10.33;;;5.90;99.90;;;;;;5063269;28;20448;-71
2024/03/17 05:46:11;;;;;;;17.30;10.40;;;5.80;99.90;;;;;;5064644;28;20445;-70
2024/03/17 05:48:39;;;;;;;24.60;9.97;;;5.90;99.90;;;;;;5064691;28;21029;-71
2024/03/17 05:51:09;;;;;;;30.23;9.83;;;5.80;99.90;;;;;;5064212;28;20526;-71
2024/03/17 05:53:37;;;;;;;33.60;11.60;;;5.80;99.90;;;;;;5063671;28;20450;-71
2024/03/17 05:56:07;;;;;;;28.90;9.90;;;6.00;99.90;;;;;;5064335;28;20435;-70
2024/03/17 05:58:34;;;;;;;24.60;9.30;;;6.10;99.90;;;;;;5064787;28;20995;-70
2024/03/17 06:01:03;;;;;;;97.90;15.20;;;6.30;99.90;;;;;;5064049;28;20463;-71
2024/03/17 06:03:30;;;;;;;41.63;10.27;;;6.20;99.90;;;;;;5063207;28;20458;-71
2024/03/17 06:05:59;;;;;;;25.93;9.77;;;6.20;99.90;;;;;;5063804;28;20458;-71
2024/03/17 06:08:28;;;;;;;63.20;11.60;;;6.30;99.90;;;;;;5056553;28;20435;-71
2024/03/17 06:10:56;;;;;;;42.30;10.57;;;6.40;99.90;;;;;;5064222;28;20490;-71
2024/03/17 06:13:24;;;;;;;41.20;10.23;;;6.30;99.90;;;;;;5063531;28;20455;-71
2024/03/17 06:15:51;;;;;;;29.50;9.03;;;6.40;99.90;;;;;;5064145;28;20446;-70
2024/03/17 06:18:18;;;;;;;14.47;7.30;;;6.40;99.90;;;;;;5064203;28;20506;-70
2024/03/17 06:20:47;;;;;;;27.93;8.77;;;6.20;99.90;;;;;;5064225;28;20475;-71
2024/03/17 06:23:15;;;;;;;19.97;9.10;;;6.30;99.90;;;;;;5063466;28;20451;-70
2024/03/17 06:25:45;;;;;;;19.63;8.13;;;6.40;99.90;;;;;;5064094;28;20520;-71
2024/03/17 06:28:14;;;;;;;22.33;9.00;;;6.50;99.90;;;;;;5064452;28;20456;-71
2024/03/17 06:30:41;;;;;;;14.67;8.00;;;6.50;99.90;;;;;;5063833;28;20971;-72
2024/03/17 06:33:08;;;;;;;22.10;8.77;;;6.70;99.90;;;;;;5063112;28;20451;-70
2024/03/17 06:35:37;;;;;;;17.83;7.67;;;6.80;99.90;;;;;;5064121;28;20963;-71
2024/03/17 06:38:04;;;;;;;16.40;7.90;;;6.90;99.90;;;;;;5063827;28;20479;-71
2024/03/17 06:40:31;;;;;;;16.20;8.37;;;6.90;99.90;;;;;;5066391;28;21278;-70
2024/03/17 06:43:00;;;;;;;19.37;9.10;;;7.00;99.90;;;;;;5068126;28;20447;-70
2024/03/17 06:45:27;;;;;;;16.40;8.33;;;7.20;99.90;;;;;;5069300;28;20681;-71
2024/03/17 06:47:55;;;;;;;14.90;8.13;;;7.20;99.90;;;;;;5069306;28;20443;-70
2024/03/17 06:50:22;;;;;;;18.03;8.47;;;7.20;99.90;;;;;;5067773;28;20456;-70
2024/03/17 06:52:49;;;;;;;17.00;7.80;;;7.20;99.90;;;;;;5066452;28;20459;-70
2024/03/17 06:55:16;;;;;;;13.83;7.20;;;7.20;99.90;;;;;;5068053;28;20443;-71
2024/03/17 06:57:44;;;;;;;14.90;8.07;;;7.30;99.90;;;;;;5068143;28;20486;-70
2024/03/17 07:00:15;;;;;;;15.50;9.13;;;7.50;99.90;;;;;;5067824;28;20471;-70
2024/03/17 07:02:44;;;;;;;16.70;8.60;;;7.50;99.90;;;;;;5066125;28;20476;-70
2024/03/17 07:05:14;;;;;;;14.93;8.20;;;7.50;99.90;;;;;;5067692;28;20449;-70
2024/03/17 07:07:42;;;;;;;15.90;7.90;;;7.40;99.90;;;;;;5067606;28;20445;-70
2024/03/17 07:10:11;;;;;;;13.03;8.00;;;7.50;99.90;;;;;;5067714;28;20452;-70
2024/03/17 07:12:38;;;;;;;16.10;8.37;;;7.60;99.90;;;;;;5066083;28;20463;-70
2024/03/17 07:15:06;;;;;;;14.40;7.77;;;7.60;99.90;;;;;;5067641;28;20443;-71
2024/03/17 07:17:34;;;;;;;12.40;7.20;;;7.60;99.90;;;;;;5065442;28;20547;-71
2024/03/17 07:20:03;;;;;;;13.70;7.27;;;7.50;99.90;;;;;;5068718;28;21046;-71
2024/03/17 07:22:30;;;;;;;15.73;7.77;;;7.60;99.90;;;;;;5067627;28;21010;-70
2024/03/17 07:25:00;;;;;;;11.70;6.90;;;7.70;99.90;;;;;;5070412;28;20451;-70
2024/03/17 07:27:27;;;;;;;13.57;7.60;;;7.80;99.90;;;;;;5067437;28;20940;-70
2024/03/17 07:29:54;;;;;;;13.03;7.43;;;7.70;99.90;;;;;;5068336;28;20448;-70
2024/03/17 07:32:22;;;;;;;14.80;7.33;;;7.60;99.90;;;;;;5066573;28;20463;-69
2024/03/17 07:34:51;;;;;;;16.33;9.00;;;7.60;99.90;;;;;;5067963;28;20457;-70
2024/03/17 07:37:18;;;;;;;15.23;8.13;;;7.70;99.90;;;;;;5067955;28;20452;-70
2024/03/17 07:39:49;;;;;;;15.17;8.50;;;8.00;99.90;;;;;;5067532;28;20450;-69
2024/03/17 07:42:16;;;;;;;15.77;8.90;;;8.00;99.90;;;;;;5066057;28;20485;-71
2024/03/17 07:44:45;;;;;;;15.20;8.00;;;8.10;99.90;;;;;;5067449;28;20457;-70
2024/03/17 07:47:12;;;;;;;15.40;8.40;;;8.20;99.90;;;;;;5067464;28;20568;-70
2024/03/17 07:49:39;;;;;;;13.70;7.83;;;8.30;99.90;;;;;;5069303;28;21020;-70
2024/03/17 07:52:07;;;;;;;15.37;8.90;;;8.40;99.90;;;;;;5062176;28;20488;-70
2024/03/17 07:54:36;;;;;;;12.40;7.67;;;8.40;99.90;;;;;;5060790;28;20820;-70
2024/03/17 07:57:03;;;;;;;15.00;8.77;;;8.40;99.90;;;;;;5066945;28;20458;-70
2024/03/17 07:59:30;;;;;;;13.50;7.53;;;8.50;99.90;;;;;;5068557;28;20479;-70
2024/03/17 08:01:57;;;;;;;13.10;8.30;;;8.70;99.90;;;;;;5066398;28;20473;-70
2024/03/17 08:04:24;;;;;;;13.67;8.37;;;8.90;99.90;;;;;;5067445;28;20943;-70
2024/03/17 08:06:51;;;;;;;14.37;9.07;;;9.10;99.90;;;;;;5066279;28;20458;-70
2024/03/17 08:09:20;;;;;;;15.63;9.27;;;9.30;99.90;;;;;;5067047;28;20991;-70
2024/03/17 08:11:47;;;;;;;15.83;9.30;;;9.40;99.90;;;;;;5066099;28;20494;-70
2024/03/17 08:14:15;;;;;;;15.67;9.20;;;9.60;99.90;;;;;;5067218;28;20456;-70
2024/03/17 08:16:42;;;;;;;15.97;8.27;;;9.80;99.90;;;;;;5067340;28;20474;-70
2024/03/17 08:19:09;;;;;;;13.90;7.73;;;10.10;99.90;;;;;;5066565;28;20478;-70
2024/03/17 08:21:36;;;;;;;14.13;7.47;;;10.00;99.90;;;;;;5064726;28;20475;-70
2024/03/17 08:24:04;;;;;;;13.43;7.00;;;10.10;99.90;;;;;;5067538;28;20447;-70
2024/03/17 08:26:32;;;;;;;12.90;7.50;;;10.10;99.90;;;;;;5067363;28;20453;-71
2024/03/17 08:28:59;;;;;;;12.10;6.93;;;10.20;99.90;;;;;;5067450;28;20441;-70
2024/03/17 08:31:26;;;;;;;15.23;8.30;;;10.40;99.90;;;;;;5065447;28;20473;-71
2024/03/17 08:33:53;;;;;;;12.47;8.27;;;10.70;99.90;;;;;;5067814;28;20945;-71
2024/03/17 08:36:21;;;;;;;12.60;8.30;;;10.90;99.90;;;;;;5067579;28;20827;-70
2024/03/17 08:38:48;;;;;;;14.40;8.70;;;11.10;99.90;;;;;;5067000;28;20543;-70
2024/03/17 08:41:16;;;;;;;13.00;7.77;;;11.10;99.90;;;;;;5064682;28;20470;-71
2024/03/17 08:43:44;;;;;;;13.20;7.53;;;11.20;99.90;;;;;;5068637;28;20480;-71
2024/03/17 08:46:13;;;;;;;11.60;7.80;;;11.40;99.90;;;;;;5063854;28;20458;-71
2024/03/17 08:48:41;;;;;;;13.13;7.20;;;11.50;99.90;;;;;;5067838;28;20451;-70
2024/03/17 08:51:10;;;;;;;12.23;7.23;;;11.70;99.90;;;;;;5065987;28;20474;-70
2024/03/17 08:53:38;;;;;;;12.20;6.90;;;12.10;99.90;;;;;;5065492;28;20482;-71
2024/03/17 08:56:06;;;;;;;12.67;7.37;;;12.00;99.90;;;;;;5066175;28;20978;-71
2024/03/17 08:58:33;;;;;;;15.67;8.27;;;12.10;99.90;;;;;;5066255;28;20480;-70
2024/03/17 09:01:07;;;;;;;14.53;8.03;;;12.00;99.90;;;;;;5066307;28;20915;-70
2024/03/17 09:03:34;;;;;;;13.33;8.67;;;12.00;99.90;;;;;;5068836;28;20442;-71
2024/03/17 09:06:01;;;;;;;13.30;8.00;;;12.00;99.90;;;;;;5065790;28;20454;-70
2024/03/17 09:08:29;;;;;;;12.47;8.20;;;12.20;99.90;;;;;;5067431;28;20446;-71
2024/03/17 09:10:56;;;;;;;14.20;8.87;;;12.20;99.90;;;;;;5066926;28;20478;-71
2024/03/17 09:13:25;;;;;;;12.20;7.83;;;12.30;99.90;;;;;;5065288;28;20455;-70
2024/03/17 09:15:54;;;;;;;12.53;7.80;;;12.30;99.90;;;;;;5065719;28;20458;-70
2024/03/17 09:18:22;;;;;;;14.00;8.37;;;12.20;99.90;;;;;;5065898;28;20486;-71
2024/03/17 09:21:00;;;;;;;13.90;8.20;;;12.10;99.90;;;;;;5065242;28;20478;-70
2024/03/17 09:23:29;;;;;;;13.33;8.03;;;12.50;99.90;;;;;;5064794;28;20457;-70
2024/03/17 09:25:58;;;;;;;13.77;8.97;;;12.80;99.90;;;;;;5065330;28;20453;-69
2024/03/17 09:28:25;;;;;;;11.57;8.23;;;12.90;99.90;;;;;;5065895;28;21032;-75
2024/03/17 09:30:52;;;;;;;13.97;7.90;;;13.30;99.90;;;;;;5062216;28;20491;-70
2024/03/17 09:33:22;;;;;;;14.57;9.17;;;13.60;99.90;;;;;;5063790;28;20445;-70
2024/03/17 09:35:55;;;;;;;13.23;8.43;;;13.90;99.90;;;;;;5064967;28;20440;-71
2024/03/17 09:38:22;;;;;;;12.53;7.50;;;14.00;99.90;;;;;;5065797;28;20489;-70
2024/03/17 09:40:52;;;;;;;12.53;8.03;;;13.90;99.90;;;;;;5065305;28;20471;-71
2024/03/17 09:43:20;;;;;;;13.70;8.20;;;14.00;99.90;;;;;;5063984;28;21091;-72
2024/03/17 09:45:47;;;;;;;11.23;7.20;;;14.00;99.90;;;;;;5066309;28;20980;-72
2024/03/17 09:48:17;;;;;;;12.93;7.80;;;13.80;99.90;;;;;;5066400;28;20938;-69
2024/03/17 09:50:52;;;;;;;13.00;7.83;;;13.60;99.90;;;;;;5066029;28;20483;-71
2024/03/17 09:53:24;;;;;;;13.43;8.03;;;13.70;99.90;;;;;;5063682;28;20835;-71
2024/03/17 09:55:51;;;;;;;12.00;7.20;;;14.00;99.90;;;;;;5065549;28;20451;-71
2024/03/17 09:58:19;;;;;;;10.27;6.30;;;14.40;99.90;;;;;;5065406;28;20481;-72
2024/03/17 10:00:46;;;;;;;10.63;6.60;;;14.70;99.90;;;;;;5064812;28;20481;-71
2024/03/17 10:03:34;;;;;;;10.80;6.10;;;14.80;99.90;;;;;;5064512;28;20463;-71
2024/03/17 10:06:02;;;;;;;10.73;6.03;;;15.00;99.90;;;;;;5065011;28;20458;-71
2024/03/17 10:08:33;;;;;;;11.13;6.40;;;15.20;99.90;;;;;;5064579;28;20447;-72
2024/03/17 10:11:00;;;;;;;11.03;5.80;;;15.30;99.90;;;;;;5062054;28;20478;-72
2024/03/17 10:13:27;;;;;;;9.70;5.70;;;15.50;99.90;;;;;;5063930;28;20454;-70
2024/03/17 10:15:54;;;;;;;9.80;5.83;;;15.60;99.90;;;;;;5065138;28;20655;-76
2024/03/17 10:18:23;;;;;;;9.40;5.60;;;15.80;99.90;;;;;;5062114;28;20564;-71
2024/03/17 10:20:54;;;;;;;9.77;5.30;;;16.10;99.90;;;;;;5063622;28;20471;-71
2024/03/17 10:23:23;;;;;;;9.13;5.43;;;16.40;99.90;;;;;;5068225;28;20484;-71
2024/03/17 10:25:50;;;;;;;9.47;5.10;;;16.30;99.90;;;;;;5065297;28;20448;-71
2024/03/17 10:28:20;;;;;;;11.50;5.73;;;16.30;99.90;;;;;;5067941;28;20450;-70
2024/03/17 10:30:59;;;;;;;9.13;5.10;;;16.10;99.90;;;;;;5066851;28;20467;-71
2024/03/17 10:33:27;;;;;;;11.77;6.00;;;15.90;99.90;;;;;;5065933;28;20446;-70
2024/03/17 10:36:05;;;;;;;11.97;6.00;;;15.60;99.90;;;;;;5065239;28;20463;-71
2024/03/17 10:38:34;;;;;;;11.27;5.40;;;15.60;99.90;;;;;;5067678;28;20833;-71
2024/03/17 10:41:02;;;;;;;11.90;6.53;;;15.30;99.90;;;;;;5066298;28;20983;-70
2024/03/17 10:43:29;;;;;;;11.80;5.40;;;15.50;99.90;;;;;;5067202;28;20953;-71
2024/03/17 10:45:59;;;;;;;10.10;4.33;;;15.30;99.90;;;;;;5071118;28;20962;-71
2024/03/17 10:48:32;;;;;;;9.87;4.50;;;15.60;99.90;;;;;;5075529;28;20459;-75
2024/03/17 10:51:02;;;;;;;8.80;4.00;;;16.20;99.90;;;;;;5059647;28;20462;-75
2024/03/17 10:53:32;;;;;;;11.00;4.97;;;16.80;99.90;;;;;;5063704;28;20948;-70
2024/03/17 10:56:06;;;;;;;9.80;4.60;;;16.60;99.90;;;;;;5071309;28;20520;-70
2024/03/17 10:58:36;;;;;;;9.63;4.87;;;16.70;99.90;;;;;;5072492;28;20461;-70
2024/03/17 11:01:10;;;;;;;9.40;5.03;;;16.30;99.90;;;;;;5077291;28;20482;-70
2024/03/17 11:03:38;;;;;;;8.63;4.53;;;16.60;99.90;;;;;;5075128;28;20474;-69
2024/03/17 11:06:06;;;;;;;8.60;4.53;;;16.90;96.30;;;;;;5069150;28;20453;-70
2024/03/17 11:08:35;;;;;;;9.20;4.37;;;16.90;99.90;;;;;;5064162;28;20454;-70
2024/03/17 11:11:03;;;;;;;8.00;4.03;;;17.60;97.90;;;;;;5060610;28;20483;-69
2024/03/17 11:13:33;;;;;;;8.37;4.10;;;17.80;93.20;;;;;;5063912;28;20443;-70
2024/03/17 11:16:04;;;;;;;8.67;4.23;;;17.40;91.70;;;;;;5060781;28;20529;-69
2024/03/17 11:18:38;;;;;;;10.10;4.40;;;17.30;91.60;;;;;;5060839;28;20466;-69
2024/03/17 11:21:08;;;;;;;9.97;4.40;;;16.80;90.80;;;;;;5070399;28;20852;-70
2024/03/17 11:23:38;;;;;;;9.00;3.83;;;17.00;89.00;;;;;;5069401;28;20503;-69
2024/03/17 11:26:06;;;;;;;8.83;4.40;;;17.00;89.10;;;;;;5074003;28;20515;-70
2024/03/17 11:28:47;;;;;;;10.63;4.33;;;17.00;87.90;;;;;;5068711;28;20813;-70
2024/03/17 11:31:55;;;;;;;10.27;4.60;;;17.20;90.80;;;;;;5075977;28;20488;-70
2024/03/17 11:34:36;;;;;;;8.10;3.43;;;17.80;89.70;;;;;;5072504;28;20457;-70
2024/03/17 11:37:05;;;;;;;8.50;3.70;;;18.30;87.10;;;;;;5074962;28;20463;-70
2024/03/17 11:39:56;;;;;;;9.63;4.40;;;18.10;80.20;;;;;;5072068;28;20487;-70
2024/03/17 11:42:24;;;;;;;9.03;4.10;;;17.70;87.60;;;;;;5085529;28;20471;-70
2024/03/17 11:45:03;;;;;;;8.43;3.60;;;17.60;84.60;;;;;;5071201;28;20449;-70
2024/03/17 11:47:37;;;;;;;9.47;3.37;;;17.50;86.50;;;;;;5073562;28;20455;-71
2024/03/17 11:50:06;;;;;;;9.27;3.17;;;17.50;83.20;;;;;;5071293;28;20448;-70
2024/03/17 11:52:32;;;;;;;10.97;3.53;;;17.90;78.30;;;;;;5072215;28;20475;-70
2024/03/17 11:55:00;;;;;;;8.70;3.10;;;18.40;80.10;;;;;;5073125;28;20484;-71
2024/03/17 11:57:27;;;;;;;9.10;3.37;;;18.90;78.20;;;;;;5068371;28;20451;-70
2024/03/17 11:59:56;;;;;;;7.90;3.17;;;19.20;72.10;;;;;;5067590;28;20482;-70
2024/03/17 12:02:24;;;;;;;8.73;4.00;;;19.20;74.80;;;;;;5063673;28;20479;-69
2024/03/17 12:04:53;;;;;;;8.80;3.50;;;19.50;71.10;;;;;;5071722;28;20446;-70
2024/03/17 12:07:21;;;;;;;8.03;3.60;;;20.20;71.00;;;;;;5073532;28;20835;-69
2024/03/17 12:09:48;;;;;;;8.23;3.47;;;20.40;69.70;;;;;;5073346;28;20455;-70
2024/03/17 12:12:19;;;;;;;8.97;3.40;;;20.50;65.70;;;;;;5074087;28;20470;-70
2024/03/17 12:14:47;;;;;;;8.10;3.60;;;20.20;68.20;;;;;;5072742;28;21007;-69
2024/03/17 12:17:15;;;;;;;8.20;3.90;;;20.20;67.80;;;;;;5071241;28;21003;-69
2024/03/17 12:19:45;;;;;;;10.20;3.97;;;20.00;66.90;;;;;;5072418;28;20479;-69
2024/03/17 12:22:16;;;;;;;9.90;4.93;;;19.80;65.50;;;;;;5073984;28;20474;-69
2024/03/17 12:24:45;;;;;;;8.90;4.33;;;19.40;66.40;;;;;;5072063;28;20455;-70
2024/03/17 12:27:18;;;;;;;8.90;4.07;;;18.40;66.60;;;;;;5073929;28;20454;-69
2024/03/17 12:29:45;;;;;;;11.30;4.73;;;17.60;67.90;;;;;;5071544;28;20454;-69
2024/03/17 12:32:14;;;;;;;8.63;3.77;;;17.40;68.00;;;;;;5066044;28;20475;-70
2024/03/17 12:34:42;;;;;;;9.83;4.37;;;17.40;70.00;;;;;;5064353;28;20443;-69
2024/03/17 12:37:08;;;;;;;8.80;3.90;;;17.00;68.40;;;;;;5066130;28;20451;-70
2024/03/17 12:39:39;;;;;;;8.77;3.90;;;16.80;69.20;;;;;;5065516;28;20552;-70
2024/03/17 12:42:06;;;;;;;10.53;4.30;;;17.10;70.20;;;;;;5068813;28;20466;-70
2024/03/17 12:44:37;;;;;;;8.87;4.10;;;17.20;70.00;;;;;;5075930;28;20436;-70
2024/03/17 12:47:04;;;;;;;10.27;3.83;;;16.60;70.30;;;;;;5071367;28;20505;-71
2024/03/17 12:49:33;;;;;;;9.07;4.20;;;16.20;70.50;;;;;;5066348;28;20984;-70